Terminal Aerodrome Forecast
Issued by NWS

Home | Current Version | Previous Version | Graphics & Text | Print | Product List | Glossary On
Versions: 1 2 3 4 5 6 7 8 9 10 11 12 13 14 15 16 17 18 19 20 21 22 23
835
FTUS43 KBIS 021726
TAFMOT
TAF
KMOT 021726Z 0218/0318 19005KT P6SM -SN BKN013 OVC025
      TEMPO 0220/0224 SCT015 OVC025
     FM030000 18004KT P6SM BKN030 OVC045
     FM030300 18005KT P6SM BKN035
     FM031500 19009KT P6SM BKN200=

USA.gov is the U.S. government's official web portal to all federal, state and local government web resources and services.